Time;durP1;ratioP1;P1;durP2;ratioP2;P2;SDS_P1;SDS_P2;PMS_P1;PMS_P2;Temp;Humidity;BMP_temperature;BMP_pressure;BME280_temperature;BME280_humidity;BME280_pressure;Samples;Min_cycle;Max_cycle;Signal;HPM_P1;HPM_P2
2024/04/19 00:00:54;;;;;;;6.60;4.30;;;7.30;11.40;;;;;;5514397;26;20680;-63
2024/04/19 00:03:22;;;;;;;8.90;5.17;;;7.30;11.50;;;;;;5511260;25;20559;-66
2024/04/19 00:05:49;;;;;;;7.80;5.50;;;7.30;11.50;;;;;;5502995;25;20331;-66
2024/04/19 00:08:20;;;;;;;10.07;5.10;;;7.40;12.20;;;;;;5490165;26;20466;-65
2024/04/19 00:10:46;;;;;;;7.20;4.73;;;7.40;11.60;;;;;;5526959;25;21141;-65
2024/04/19 00:13:14;;;;;;;8.07;4.70;;;7.40;11.60;;;;;;5525725;25;20476;-65
2024/04/19 00:15:42;;;;;;;7.90;5.10;;;7.40;11.60;;;;;;5511579;26;20818;-66
2024/04/19 00:18:10;;;;;;;9.27;5.27;;;7.40;11.60;;;;;;5497687;25;20548;-65
2024/04/19 00:20:36;;;;;;;12.53;5.30;;;7.40;11.60;;;;;;5510367;26;21082;-65
2024/04/19 00:23:04;;;;;;;7.17;5.20;;;7.50;11.60;;;;;;5525246;25;20560;-66
2024/04/19 00:25:36;;;;;;;13.93;5.87;;;7.50;11.60;;;;;;5526314;25;20480;-66
2024/04/19 00:28:05;;;;;;;10.63;6.00;;;7.50;11.60;;;;;;5526699;25;20515;-65
2024/04/19 00:30:31;;;;;;;9.23;6.00;;;7.60;11.70;;;;;;5522089;25;20464;-66
2024/04/19 00:33:00;;;;;;;8.63;6.33;;;7.60;11.70;;;;;;5488620;26;21072;-66
2024/04/19 00:35:25;;;;;;;11.70;7.60;;;7.60;18.90;;;;;;5489076;26;20474;-67
2024/04/19 00:37:54;;;;;;;10.87;9.97;;;7.60;26.10;;;;;;5498679;26;20922;-67
2024/04/19 00:40:20;;;;;;;10.87;6.60;;;7.50;34.00;;;;;;5525933;25;20304;-67
2024/04/19 00:42:55;;;;;;;10.53;5.70;;;7.50;26.10;;;;;;5525113;25;20475;-67
2024/04/19 00:45:31;;;;;;;9.07;5.77;;;7.50;26.10;;;;;;5526228;25;20223;-67
2024/04/19 00:48:01;;;;;;;10.63;7.80;;;7.40;26.00;;;;;;5510635;25;20545;-67
2024/04/19 00:50:30;;;;;;;13.17;11.83;;;7.40;34.80;;;;;;5525786;25;20523;-67
2024/04/19 00:52:58;;;;;;;11.87;10.37;;;7.30;42.50;;;;;;5525066;25;20599;-67
2024/04/19 00:55:25;;;;;;;50.10;47.80;;;7.20;42.40;;;;;;5525972;25;20572;-68
2024/04/19 00:57:57;;;;;;;173.73;167.73;;;7.10;51.10;;;;;;5526154;25;20464;-67
2024/04/19 01:00:24;;;;;;;129.10;124.40;;;7.10;59.40;;;;;;5525673;25;21152;-67
2024/04/19 01:02:55;;;;;;;230.17;223.03;;;7.00;59.40;;;;;;5525035;25;20476;-67
2024/04/19 01:05:24;;;;;;;402.53;390.60;;;7.00;59.40;;;;;;5525065;25;20586;-67
2024/04/19 01:07:51;;;;;;;207.73;200.97;;;7.00;68.00;;;;;;5525704;25;20482;-67
2024/04/19 01:10:20;;;;;;;264.30;256.30;;;7.00;64.20;;;;;;5525529;25;20561;-66
2024/04/19 01:12:46;;;;;;;202.97;196.30;;;7.00;59.50;;;;;;5501624;25;20571;-65
2024/04/19 01:15:20;;;;;;;29.83;28.03;;;7.00;67.40;;;;;;5488597;26;21233;-66
2024/04/19 01:17:46;;;;;;;20.20;18.80;;;7.10;50.80;;;;;;5512027;26;20726;-66
2024/04/19 01:20:15;;;;;;;11.80;8.57;;;7.20;59.50;;;;;;5525671;25;20513;-67
2024/04/19 01:22:42;;;;;;;18.83;17.30;;;7.20;51.10;;;;;;5509745;26;20828;-66
2024/04/19 01:25:16;;;;;;;63.07;60.23;;;7.20;56.10;;;;;;5525530;25;20495;-66
2024/04/19 01:27:44;;;;;;;142.80;137.70;;;7.10;59.40;;;;;;5510950;26;20514;-66
2024/04/19 01:30:13;;;;;;;257.07;248.90;;;7.10;59.40;;;;;;5525517;25;20813;-66
2024/04/19 01:32:39;;;;;;;143.60;138.50;;;7.00;59.40;;;;;;5487967;25;20465;-66
2024/04/19 01:35:08;;;;;;;262.93;255.00;;;7.10;59.40;;;;;;5516661;26;20941;-66
2024/04/19 01:37:34;;;;;;;218.50;211.27;;;7.10;59.50;;;;;;5489759;25;20731;-66
2024/04/19 01:40:02;;;;;;;192.20;185.80;;;7.10;59.40;;;;;;5488323;26;20469;-66
2024/04/19 01:42:28;;;;;;;260.60;252.57;;;7.20;59.60;;;;;;5487301;26;20678;-65
2024/04/19 01:44:59;;;;;;;360.80;349.40;;;7.10;59.50;;;;;;5513586;26;20585;-65
2024/04/19 01:47:25;;;;;;;86.33;82.83;;;7.10;75.30;;;;;;5525337;25;20228;-65
2024/04/19 01:49:53;;;;;;;87.53;83.90;;;7.10;75.40;;;;;;5515942;25;20462;-65
2024/04/19 01:52:19;;;;;;;74.60;71.50;;;7.00;99.90;;;;;;5518158;26;20243;-65
2024/04/19 01:54:48;;;;;;;240.80;233.40;;;6.80;99.90;;;;;;5487956;26;20524;-65
2024/04/19 01:57:14;;;;;;;343.40;333.00;;;6.60;99.90;;;;;;5503392;26;20552;-65
2024/04/19 01:59:42;;;;;;;687.40;663.93;;;6.50;99.90;;;;;;5509853;26;20476;-65
2024/04/19 02:02:11;;;;;;;792.40;760.00;;;6.40;99.90;;;;;;5524115;25;20227;-64
2024/04/19 02:04:40;;;;;;;690.50;666.40;;;6.40;99.90;;;;;;5524691;25;20457;-65
2024/04/19 02:07:06;;;;;;;803.00;770.03;;;6.40;99.90;;;;;;5524788;25;20564;-65
2024/04/19 02:09:36;;;;;;;850.87;810.27;;;6.40;99.90;;;;;;5505271;25;20477;-65
2024/04/19 02:12:04;;;;;;;930.30;876.90;;;6.40;99.90;;;;;;5487501;26;20221;-66
2024/04/19 02:14:30;;;;;;;906.07;856.10;;;6.40;99.90;;;;;;5487546;26;20593;-67
2024/04/19 02:16:59;;;;;;;932.40;878.93;;;6.40;99.90;;;;;;5512165;26;20508;-66
2024/04/19 02:19:29;;;;;;;952.63;894.83;;;6.40;99.90;;;;;;5524358;25;20509;-66
2024/04/19 02:21:57;;;;;;;980.57;919.23;;;6.40;99.90;;;;;;5523660;25;21294;-67
2024/04/19 02:24:23;;;;;;;1027.57;961.77;;;6.40;99.90;;;;;;5524130;25;20543;-67
2024/04/19 02:26:52;;;;;;;1074.57;999.90;;;6.40;99.90;;;;;;5524172;25;20603;-67
2024/04/19 02:32:05;;;;;;;1094.77;999.90;;;6.50;99.90;;;;;;5489136;26;20545;-67
2024/04/19 02:34:36;;;;;;;1104.17;999.90;;;6.40;99.90;;;;;;5506660;26;20583;-66
2024/04/19 02:37:05;;;;;;;1107.10;999.90;;;6.50;99.90;;;;;;5524431;25;20457;-67
2024/04/19 02:39:33;;;;;;;1085.50;999.90;;;6.50;99.90;;;;;;5524145;25;20468;-67
2024/04/19 02:42:02;;;;;;;1067.97;997.77;;;6.50;99.90;;;;;;5511893;25;20642;-66
2024/04/19 02:44:30;;;;;;;1096.43;999.90;;;6.50;99.90;;;;;;5486988;26;21122;-67
2024/04/19 02:46:59;;;;;;;1085.10;999.90;;;6.50;99.90;;;;;;5497729;26;20480;-67
2024/04/19 02:49:27;;;;;;;1097.57;999.90;;;6.50;99.90;;;;;;5521591;25;20869;-68
2024/04/19 02:51:59;;;;;;;1097.93;999.90;;;6.50;99.90;;;;;;5496159;26;20484;-67
2024/04/19 02:54:27;;;;;;;1124.00;999.90;;;6.50;99.90;;;;;;5523813;25;20530;-67
2024/04/19 02:56:56;;;;;;;1126.73;999.90;;;6.50;99.90;;;;;;5523951;25;20939;-67
2024/04/19 02:59:24;;;;;;;1122.53;999.90;;;6.50;99.90;;;;;;5523739;25;20578;-66
2024/04/19 03:01:52;;;;;;;1090.70;999.90;;;6.60;99.90;;;;;;5498872;25;20457;-67
2024/04/19 03:04:21;;;;;;;1072.30;998.87;;;6.50;99.90;;;;;;5486841;26;20553;-67
2024/04/19 03:06:49;;;;;;;1058.13;986.87;;;6.50;99.90;;;;;;5495103;26;20901;-67
2024/04/19 03:09:20;;;;;;;1042.17;972.37;;;6.50;99.90;;;;;;5523957;25;21034;-67
2024/04/19 03:11:49;;;;;;;1062.93;989.27;;;6.50;99.90;;;;;;5510363;25;20457;-67
2024/04/19 03:14:17;;;;;;;1046.57;975.23;;;6.50;99.90;;;;;;5527387;25;21026;-67
2024/04/19 03:16:45;;;;;;;1087.03;999.90;;;6.50;99.90;;;;;;5524310;26;20555;-67
2024/04/19 03:19:14;;;;;;;1080.33;999.90;;;6.50;99.90;;;;;;5526161;25;20523;-67
2024/04/19 03:21:42;;;;;;;1073.70;999.60;;;6.50;99.90;;;;;;5507640;26;20464;-67
2024/04/19 03:24:11;;;;;;;1030.80;961.73;;;6.50;99.90;;;;;;5494267;25;21040;-67
2024/04/19 03:26:42;;;;;;;1041.93;970.93;;;6.50;99.90;;;;;;5486706;26;20830;-67
2024/04/19 03:29:11;;;;;;;1063.33;990.10;;;6.50;99.90;;;;;;5502776;26;20589;-67
2024/04/19 03:31:39;;;;;;;1071.67;997.13;;;6.50;99.90;;;;;;5526609;25;20517;-66
2024/04/19 03:34:08;;;;;;;1032.10;962.53;;;6.50;99.90;;;;;;5527815;25;20468;-66
2024/04/19 03:36:36;;;;;;;1015.80;947.07;;;6.30;99.90;;;;;;5511968;25;20517;-67
2024/04/19 03:39:04;;;;;;;1056.73;983.57;;;6.40;99.90;;;;;;5527404;25;20614;-67
2024/04/19 03:41:33;;;;;;;1026.57;956.80;;;6.40;99.90;;;;;;5526471;25;20472;-67
2024/04/19 03:46:54;;;;;;;1052.83;979.63;;;6.40;99.90;;;;;;5529743;26;20518;-67
2024/04/19 03:49:22;;;;;;;1080.53;999.90;;;6.40;99.90;;;;;;5526558;25;20626;-67
2024/04/19 03:51:51;;;;;;;1077.60;999.73;;;6.30;99.90;;;;;;5517687;25;20563;-67
2024/04/19 03:54:19;;;;;;;1074.00;996.80;;;6.30;99.90;;;;;;5505426;26;20520;-67
2024/04/19 03:56:48;;;;;;;1048.30;973.63;;;6.30;99.90;;;;;;5511393;25;20574;-67
2024/04/19 03:59:19;;;;;;;1101.23;999.90;;;6.30;99.90;;;;;;5526749;25;20457;-67
2024/04/19 04:01:50;;;;;;;1087.73;999.90;;;6.20;99.90;;;;;;5511692;26;20577;-67
2024/04/19 04:04:18;;;;;;;1112.43;999.90;;;6.20;99.90;;;;;;5511082;25;20584;-67
2024/04/19 04:06:47;;;;;;;1150.27;999.90;;;6.20;99.90;;;;;;5512793;26;20520;-67
2024/04/19 04:09:15;;;;;;;1157.00;999.90;;;6.10;99.90;;;;;;5526686;25;20460;-66
2024/04/19 04:11:43;;;;;;;1119.77;999.90;;;6.10;99.90;;;;;;5510827;26;20504;-68
2024/04/19 04:14:12;;;;;;;1133.07;999.90;;;6.00;99.90;;;;;;5526261;25;20480;-67
2024/04/19 04:16:43;;;;;;;1134.53;999.90;;;5.90;99.90;;;;;;5520837;25;20478;-67
2024/04/19 04:19:11;;;;;;;1140.97;999.90;;;5.90;99.90;;;;;;5489906;26;20454;-67
2024/04/19 04:21:40;;;;;;;1116.87;999.90;;;5.80;99.90;;;;;;5524933;26;20868;-68
2024/04/19 04:24:08;;;;;;;1119.03;999.90;;;5.80;99.90;;;;;;5526281;25;20460;-67
2024/04/19 04:26:37;;;;;;;1121.40;999.90;;;5.80;99.90;;;;;;5526249;25;20927;-67
2024/04/19 04:29:05;;;;;;;1128.93;999.90;;;5.80;99.90;;;;;;5514214;25;20469;-68
2024/04/19 04:31:31;;;;;;;1165.37;999.90;;;5.80;99.90;;;;;;5488677;26;20798;-68
2024/04/19 04:34:02;;;;;;;1191.57;999.90;;;5.70;99.90;;;;;;5489277;26;20761;-69
2024/04/19 04:36:30;;;;;;;1178.97;999.90;;;5.70;99.90;;;;;;5489379;26;20645;-69
2024/04/19 04:38:59;;;;;;;1186.57;999.90;;;5.70;99.90;;;;;;5488911;26;20466;-68
2024/04/19 04:41:27;;;;;;;1201.53;999.90;;;5.70;99.90;;;;;;5489995;26;20487;-68
2024/04/19 04:43:56;;;;;;;1202.77;999.90;;;5.70;99.90;;;;;;5516018;25;20568;-68
2024/04/19 04:46:24;;;;;;;1186.07;999.90;;;5.70;99.90;;;;;;5490703;26;21129;-68
2024/04/19 04:48:52;;;;;;;1189.37;999.90;;;5.70;99.90;;;;;;5526190;25;20929;-66
2024/04/19 04:51:24;;;;;;;1188.87;999.90;;;5.60;99.90;;;;;;5525294;25;20457;-68
2024/04/19 04:53:52;;;;;;;1172.30;999.90;;;5.60;99.90;;;;;;5525682;25;20524;-68
2024/04/19 04:56:21;;;;;;;1187.93;999.90;;;5.60;99.90;;;;;;5525427;25;20468;-68
2024/04/19 04:58:50;;;;;;;1194.77;999.90;;;5.60;99.90;;;;;;5525960;25;20581;-69
2024/04/19 05:01:18;;;;;;;1222.33;999.90;;;5.60;99.90;;;;;;5525266;25;20500;-68
2024/04/19 05:03:48;;;;;;;1196.60;999.90;;;5.60;99.90;;;;;;5510361;25;20681;-69
2024/04/19 05:06:17;;;;;;;1190.17;999.90;;;5.60;99.90;;;;;;5510579;25;20613;-67
2024/04/19 05:08:48;;;;;;;1177.73;999.90;;;5.70;99.90;;;;;;5496200;26;20512;-69
2024/04/19 05:11:16;;;;;;;1154.97;999.90;;;5.70;99.90;;;;;;5511902;25;20471;-69
2024/04/19 05:13:45;;;;;;;1156.33;999.90;;;5.70;99.90;;;;;;5506713;26;20468;-69
2024/04/19 05:16:13;;;;;;;1150.20;999.90;;;5.70;99.90;;;;;;5506365;25;21153;-68
2024/04/19 05:18:42;;;;;;;1142.27;999.90;;;5.80;99.90;;;;;;5508746;26;20946;-68
2024/04/19 05:21:10;;;;;;;1153.27;999.90;;;5.70;99.90;;;;;;5513041;26;20477;-68
2024/04/19 05:23:38;;;;;;;1160.30;999.90;;;5.80;99.90;;;;;;5525021;25;20565;-68
2024/04/19 05:26:10;;;;;;;1161.97;999.90;;;5.80;99.90;;;;;;5525519;25;20570;-68
2024/04/19 05:28:38;;;;;;;1166.80;999.90;;;5.80;99.90;;;;;;5505286;25;20522;-68
2024/04/19 05:31:06;;;;;;;1165.93;999.90;;;5.80;99.90;;;;;;5487502;26;20441;-68
2024/04/19 05:33:35;;;;;;;1189.10;999.90;;;5.80;99.90;;;;;;5516523;25;20480;-68
2024/04/19 05:36:03;;;;;;;1162.70;999.90;;;5.80;99.90;;;;;;5503695;25;20462;-68
2024/04/19 05:38:32;;;;;;;1171.97;999.90;;;5.80;99.90;;;;;;5488416;26;20465;-67
2024/04/19 05:41:00;;;;;;;1126.53;999.90;;;5.90;99.90;;;;;;5488211;26;20466;-68
2024/04/19 05:43:31;;;;;;;1143.43;999.90;;;5.90;99.90;;;;;;5487908;26;20601;-68
2024/04/19 05:46:00;;;;;;;1118.60;999.90;;;5.90;99.90;;;;;;5488035;26;20525;-68
2024/04/19 05:48:28;;;;;;;1159.87;999.90;;;6.00;99.90;;;;;;5488207;26;20510;-68
2024/04/19 05:50:56;;;;;;;1146.23;999.90;;;6.10;99.90;;;;;;5513338;26;20632;-68
2024/04/19 05:53:25;;;;;;;1201.57;999.90;;;6.20;99.90;;;;;;5508176;25;20489;-68
2024/04/19 05:55:53;;;;;;;1177.33;999.90;;;6.20;99.90;;;;;;5497266;26;20561;-69
2024/04/19 05:58:23;;;;;;;1174.10;999.90;;;6.20;99.90;;;;;;5525010;25;20481;-69
2024/04/19 06:00:55;;;;;;;1185.33;999.90;;;6.30;99.90;;;;;;5501050;25;20521;-69
2024/04/19 06:03:23;;;;;;;1173.57;999.90;;;6.30;99.90;;;;;;5517409;26;21022;-69
2024/04/19 06:05:52;;;;;;;1177.83;999.90;;;6.40;99.90;;;;;;5502407;26;20464;-69
2024/04/19 06:08:20;;;;;;;1165.10;999.90;;;6.40;99.90;;;;;;5513623;25;21104;-69
2024/04/19 06:10:48;;;;;;;1167.97;999.90;;;6.40;99.90;;;;;;5516742;25;20548;-68
2024/04/19 06:13:17;;;;;;;1206.33;999.90;;;6.40;99.90;;;;;;5486901;26;21076;-69
2024/04/19 06:15:45;;;;;;;1199.27;999.90;;;6.40;99.90;;;;;;5488120;26;20918;-69
2024/04/19 06:18:17;;;;;;;1182.50;999.90;;;6.50;99.90;;;;;;5488163;26;20514;-69
2024/04/19 06:20:45;;;;;;;1193.00;999.90;;;6.50;99.90;;;;;;5488251;26;20458;-69
2024/04/19 06:23:16;;;;;;;1199.90;999.90;;;6.50;99.90;;;;;;5516600;26;20535;-69
2024/04/19 06:25:44;;;;;;;1175.77;999.90;;;6.50;99.90;;;;;;5510089;26;20516;-69
2024/04/19 06:28:12;;;;;;;1201.27;999.90;;;6.60;99.90;;;;;;5524632;25;20865;-69
2024/04/19 06:30:41;;;;;;;1181.57;999.90;;;6.70;99.90;;;;;;5524483;25;20520;-69
2024/04/19 06:33:09;;;;;;;1184.90;999.90;;;6.70;99.90;;;;;;5524006;25;20511;-69
2024/04/19 06:35:40;;;;;;;1192.57;999.90;;;6.70;99.90;;;;;;5504254;25;20562;-68
2024/04/19 06:38:09;;;;;;;1173.07;999.90;;;6.80;99.90;;;;;;5487410;26;21020;-70
2024/04/19 06:40:37;;;;;;;1175.50;999.90;;;6.80;99.90;;;;;;5521802;26;20480;-70
2024/04/19 06:43:06;;;;;;;1177.23;999.90;;;6.90;99.90;;;;;;5513467;25;20516;-70
2024/04/19 06:45:37;;;;;;;1196.43;999.90;;;7.00;99.90;;;;;;5518123;25;20460;-70
2024/04/19 06:48:06;;;;;;;1182.57;999.90;;;7.00;99.90;;;;;;5513235;26;20468;-69
2024/04/19 06:50:35;;;;;;;1173.37;999.90;;;7.10;99.90;;;;;;5522751;25;20471;-70
2024/04/19 06:53:06;;;;;;;1164.67;999.90;;;7.10;99.90;;;;;;5522319;25;20468;-71
2024/04/19 06:55:35;;;;;;;1168.60;999.90;;;7.10;99.90;;;;;;5522784;25;20456;-71
2024/04/19 06:58:03;;;;;;;1146.73;999.90;;;7.10;99.90;;;;;;5522574;25;20476;-71
2024/04/19 07:00:32;;;;;;;1150.30;999.90;;;7.10;99.90;;;;;;5522420;25;20472;-71
2024/04/19 07:03:00;;;;;;;1157.17;999.90;;;7.10;99.90;;;;;;5508256;25;20565;-71
2024/04/19 07:05:29;;;;;;;1176.87;999.90;;;7.10;99.90;;;;;;5526280;25;20523;-70
2024/04/19 07:07:57;;;;;;;1194.50;999.90;;;7.20;99.90;;;;;;5527210;25;20603;-70
2024/04/19 07:10:28;;;;;;;1195.47;999.90;;;7.20;99.90;;;;;;5524682;25;20573;-70
2024/04/19 07:12:57;;;;;;;1180.53;999.90;;;7.20;99.90;;;;;;5490254;26;20450;-70
2024/04/19 07:15:25;;;;;;;1229.23;999.90;;;7.20;99.90;;;;;;5506303;26;20377;-71
2024/04/19 07:17:54;;;;;;;1202.37;999.90;;;7.20;99.90;;;;;;5527287;25;21131;-70
2024/04/19 07:20:22;;;;;;;1203.67;999.90;;;7.30;99.90;;;;;;5526918;25;20520;-69
2024/04/19 07:22:52;;;;;;;1192.23;999.90;;;7.40;99.90;;;;;;5526633;25;20464;-68
2024/04/19 07:25:21;;;;;;;1198.80;999.90;;;7.50;99.90;;;;;;5527280;25;20464;-68
2024/04/19 07:27:52;;;;;;;1197.70;999.90;;;7.50;99.90;;;;;;5519188;25;20510;-68
2024/04/19 07:30:20;;;;;;;1219.93;999.90;;;7.50;99.90;;;;;;5505993;26;20460;-68
2024/04/19 07:32:50;;;;;;;1206.90;999.90;;;7.50;99.90;;;;;;5526541;25;20472;-67
2024/04/19 07:35:18;;;;;;;1221.70;999.90;;;7.50;99.90;;;;;;5527197;25;21010;-68
2024/04/19 07:37:47;;;;;;;1231.77;999.90;;;7.60;99.90;;;;;;5490682;26;20477;-68
2024/04/19 07:40:15;;;;;;;1210.00;999.90;;;7.60;99.90;;;;;;5520263;26;20464;-69
2024/04/19 07:42:45;;;;;;;1214.47;999.90;;;7.60;99.90;;;;;;5525944;25;20523;-69
2024/04/19 07:45:20;;;;;;;1185.77;999.90;;;7.70;99.90;;;;;;5527062;25;20515;-69
2024/04/19 07:47:49;;;;;;;1187.63;999.90;;;7.70;99.90;;;;;;5527171;25;20508;-69
2024/04/19 07:50:17;;;;;;;1187.73;999.90;;;7.70;99.90;;;;;;5526944;25;20468;-69
2024/04/19 07:52:46;;;;;;;1202.27;999.90;;;7.80;99.90;;;;;;5505118;26;20454;-70
2024/04/19 07:55:15;;;;;;;1193.93;999.90;;;7.80;99.90;;;;;;5490740;26;20462;-71
2024/04/19 07:57:44;;;;;;;1195.67;999.90;;;7.90;99.90;;;;;;5512248;26;20430;-70
2024/04/19 08:00:17;;;;;;;1215.70;999.90;;;8.00;99.90;;;;;;5525378;25;20531;-71
2024/04/19 08:02:46;;;;;;;1177.63;999.90;;;8.00;99.90;;;;;;5525652;25;20464;-69
2024/04/19 08:05:17;;;;;;;1171.20;999.90;;;8.10;99.90;;;;;;5503693;25;20461;-71
2024/04/19 08:07:45;;;;;;;1177.90;999.90;;;8.10;99.90;;;;;;5513851;26;20511;-70
2024/04/19 08:10:16;;;;;;;1177.73;999.90;;;8.20;99.90;;;;;;5525172;25;20601;-70
2024/04/19 08:12:44;;;;;;;1178.10;999.90;;;8.30;99.90;;;;;;5506611;26;20462;-70
2024/04/19 08:15:15;;;;;;;1169.27;999.90;;;8.40;99.90;;;;;;5488483;26;20919;-70
2024/04/19 08:17:44;;;;;;;1143.07;999.90;;;8.40;99.90;;;;;;5511718;26;20817;-71
2024/04/19 08:20:12;;;;;;;1154.17;999.90;;;8.50;99.90;;;;;;5526979;25;20464;-71
2024/04/19 08:22:41;;;;;;;1132.97;999.90;;;8.40;99.90;;;;;;5513478;25;20464;-70
2024/04/19 08:25:09;;;;;;;1132.73;999.90;;;8.50;99.90;;;;;;5526172;25;20492;-70
2024/04/19 08:27:38;;;;;;;1149.53;999.90;;;8.60;99.90;;;;;;5526207;25;20605;-70
2024/04/19 08:30:07;;;;;;;1118.30;999.90;;;8.60;99.90;;;;;;5514806;25;20575;-70
2024/04/19 08:32:39;;;;;;;1126.17;999.90;;;8.60;99.90;;;;;;5524832;26;20521;-70
2024/04/19 08:35:07;;;;;;;1135.87;999.90;;;8.70;99.90;;;;;;5526138;25;20478;-70
2024/04/19 08:37:36;;;;;;;1125.30;999.90;;;8.80;99.90;;;;;;5526043;25;20865;-69
2024/04/19 08:40:04;;;;;;;1139.23;999.90;;;8.90;99.90;;;;;;5514350;25;20462;-69
2024/04/19 08:42:33;;;;;;;1143.60;999.90;;;8.90;99.90;;;;;;5488315;26;20575;-70
2024/04/19 08:45:04;;;;;;;1122.63;999.90;;;9.00;99.90;;;;;;5501260;26;20521;-69
2024/04/19 08:47:35;;;;;;;1078.27;993.00;;;8.90;99.90;;;;;;5524896;25;20464;-69
2024/04/19 08:50:08;;;;;;;1082.40;998.00;;;9.00;99.90;;;;;;5517215;26;20440;-70
2024/04/19 08:52:37;;;;;;;1113.53;999.90;;;8.90;99.90;;;;;;5523193;25;20517;-69
2024/04/19 08:55:10;;;;;;;1138.57;999.90;;;9.00;99.90;;;;;;5526345;25;20464;-70
2024/04/19 08:57:42;;;;;;;1150.23;999.90;;;9.10;99.90;;;;;;5506093;25;20824;-71
2024/04/19 09:00:11;;;;;;;1116.87;999.90;;;9.40;99.90;;;;;;5507584;26;20457;-72
2024/04/19 09:02:40;;;;;;;1094.50;999.90;;;9.50;99.90;;;;;;5512914;25;20514;-71
2024/04/19 09:05:11;;;;;;;1108.37;999.90;;;9.50;99.90;;;;;;5518321;26;20803;-71
2024/04/19 09:07:40;;;;;;;1130.83;999.90;;;9.40;99.90;;;;;;5505040;25;20597;-69
2024/04/19 09:10:09;;;;;;;1135.70;999.90;;;9.10;99.90;;;;;;5499409;26;20508;-69
2024/04/19 09:12:38;;;;;;;1134.63;999.90;;;9.00;99.90;;;;;;5519499;25;20835;-68
2024/04/19 09:15:07;;;;;;;1133.70;999.90;;;9.10;99.90;;;;;;5523664;26;20464;-68
2024/04/19 09:17:36;;;;;;;1159.57;999.90;;;9.10;99.90;;;;;;5520530;25;20577;-68
2024/04/19 09:20:04;;;;;;;1154.17;999.90;;;9.30;99.90;;;;;;5489437;26;20530;-68
2024/04/19 09:22:36;;;;;;;1144.27;999.90;;;9.30;99.90;;;;;;5507701;26;20601;-67
2024/04/19 09:25:04;;;;;;;1138.07;999.90;;;9.20;99.90;;;;;;5525605;25;20508;-68
2024/04/19 09:27:34;;;;;;;1175.00;999.90;;;9.20;99.90;;;;;;5525061;25;20475;-66
2024/04/19 09:30:03;;;;;;;1168.17;999.90;;;9.20;99.90;;;;;;5508893;25;20464;-66
2024/04/19 09:32:31;;;;;;;1129.87;999.90;;;9.30;99.90;;;;;;5496012;25;20474;-67
2024/04/19 09:35:00;;;;;;;1138.20;999.90;;;9.10;99.90;;;;;;5499737;26;20464;-67
2024/04/19 09:37:29;;;;;;;1142.73;999.90;;;9.20;99.90;;;;;;5507271;25;20478;-68
2024/04/19 09:40:00;;;;;;;1102.83;999.90;;;9.20;99.90;;;;;;5498576;26;20500;-68
2024/04/19 09:42:29;;;;;;;1138.87;999.90;;;9.10;99.90;;;;;;5506391;25;20612;-68
2024/04/19 09:45:01;;;;;;;1136.40;999.90;;;9.10;99.90;;;;;;5488238;26;21158;-66
2024/04/19 09:47:33;;;;;;;1131.40;999.90;;;9.20;99.90;;;;;;5491159;26;20457;-66
2024/04/19 09:50:04;;;;;;;1166.57;999.90;;;9.10;99.90;;;;;;5498906;25;20579;-65
2024/04/19 09:52:33;;;;;;;1162.77;999.90;;;9.30;99.90;;;;;;5506520;26;20464;-66
2024/04/19 09:55:09;;;;;;;1148.47;999.90;;;9.70;99.90;;;;;;5525016;25;20457;-67
2024/04/19 09:57:38;;;;;;;1146.87;999.90;;;9.90;99.90;;;;;;5524988;25;20476;-68
2024/04/19 10:00:09;;;;;;;1135.33;999.90;;;10.20;99.90;;;;;;5518341;25;21066;-67
2024/04/19 10:02:38;;;;;;;1082.57;999.63;;;10.50;99.90;;;;;;5523560;25;20445;-69
2024/04/19 10:05:08;;;;;;;1050.93;971.93;;;10.80;99.90;;;;;;5524618;25;20869;-69
2024/04/19 10:07:40;;;;;;;993.97;921.80;;;10.60;99.90;;;;;;5509209;25;20543;-69
2024/04/19 10:10:11;;;;;;;964.03;892.83;;;10.20;99.90;;;;;;5525039;25;20464;-70
2024/04/19 10:12:41;;;;;;;949.67;883.00;;;10.00;99.90;;;;;;5523723;25;20465;-68
2024/04/19 10:15:12;;;;;;;956.30;893.30;;;9.80;99.90;;;;;;5496460;25;20621;-67
2024/04/19 10:17:40;;;;;;;961.50;896.87;;;9.70;99.90;;;;;;5508704;26;20535;-66
2024/04/19 10:20:11;;;;;;;962.00;896.30;;;9.80;99.90;;;;;;5524639;25;21014;-67
2024/04/19 10:22:42;;;;;;;950.00;885.50;;;9.80;99.90;;;;;;5488002;25;20525;-68
2024/04/19 10:25:14;;;;;;;966.67;900.17;;;9.90;99.90;;;;;;5516356;26;20603;-67
2024/04/19 10:27:42;;;;;;;951.17;886.37;;;9.90;99.90;;;;;;5509638;25;20566;-69
2024/04/19 10:30:11;;;;;;;1026.50;958.43;;;9.80;99.90;;;;;;5524388;25;21027;-66
2024/04/19 10:32:40;;;;;;;1078.73;999.90;;;9.80;99.90;;;;;;5487656;25;20585;-66
2024/04/19 10:35:13;;;;;;;1050.67;979.07;;;9.80;99.90;;;;;;5504774;26;20919;-66
2024/04/19 10:37:41;;;;;;;1051.80;980.30;;;9.60;99.90;;;;;;5524300;25;20578;-66
2024/04/19 10:40:13;;;;;;;1043.33;974.47;;;9.80;99.90;;;;;;5499539;25;21016;-66
2024/04/19 10:42:42;;;;;;;1084.07;999.90;;;9.90;99.90;;;;;;5511240;26;20806;-66
2024/04/19 10:45:14;;;;;;;1086.50;999.90;;;9.50;99.90;;;;;;5527716;25;20535;-65
2024/04/19 10:47:43;;;;;;;1103.70;999.90;;;9.40;99.90;;;;;;5527952;25;20509;-66
2024/04/19 10:50:12;;;;;;;1132.97;999.90;;;9.60;99.90;;;;;;5527592;25;20535;-67
2024/04/19 10:52:40;;;;;;;1111.37;999.90;;;9.70;99.90;;;;;;5506359;25;20587;-67
2024/04/19 10:55:09;;;;;;;1089.50;999.90;;;9.70;99.90;;;;;;5503757;26;20532;-66
2024/04/19 10:57:41;;;;;;;1110.37;999.90;;;9.50;99.90;;;;;;5522667;25;20465;-66
2024/04/19 11:00:12;;;;;;;1060.97;985.77;;;9.60;99.90;;;;;;5490753;26;21218;-67
2024/04/19 11:02:41;;;;;;;1148.37;999.90;;;9.90;99.90;;;;;;5510453;26;20448;-67
2024/04/19 11:05:10;;;;;;;1122.80;999.90;;;10.00;99.90;;;;;;5527621;25;20953;-66
2024/04/19 11:07:40;;;;;;;1111.00;999.90;;;9.80;99.90;;;;;;5527455;25;20528;-66
2024/04/19 11:10:10;;;;;;;1128.87;999.90;;;9.60;99.90;;;;;;5527701;25;20574;-65
2024/04/19 11:12:41;;;;;;;1152.00;999.90;;;9.70;99.90;;;;;;5521534;25;20823;-65
2024/04/19 11:15:10;;;;;;;1106.37;999.90;;;10.10;99.90;;;;;;5490287;26;20498;-65
2024/04/19 11:17:40;;;;;;;1100.83;999.90;;;10.00;99.90;;;;;;5525074;26;20480;-65
2024/04/19 11:20:09;;;;;;;1073.43;991.80;;;9.70;99.90;;;;;;5508592;26;20473;-64
2024/04/19 11:22:37;;;;;;;1024.95;946.42;;;9.70;99.90;;;;;;5507508;26;20363;-64
2024/04/19 11:25:07;;;;;;;989.50;924.67;;;10.10;99.90;;;;;;5526582;25;20223;-64
2024/04/19 11:27:35;;;;;;;955.60;893.90;;;9.40;99.90;;;;;;5522757;25;20472;-64
2024/04/19 11:30:08;;;;;;;1087.03;999.90;;;9.30;99.90;;;;;;5517146;26;20908;-64
2024/04/19 11:32:37;;;;;;;1104.17;999.90;;;8.70;99.90;;;;;;5526413;25;21018;-65
2024/04/19 11:35:08;;;;;;;1101.33;999.90;;;8.80;99.90;;;;;;5527205;25;20933;-65
2024/04/19 11:37:37;;;;;;;1103.03;999.90;;;9.00;99.90;;;;;;5527058;25;20531;-65
2024/04/19 11:40:18;;;;;;;1053.07;952.50;;;9.30;99.90;;;;;;5526864;25;21070;-63
2024/04/19 11:42:47;;;;;;;1079.70;986.30;;;9.30;99.90;;;;;;5504476;26;20518;-65
2024/04/19 11:45:18;;;;;;;1111.40;999.90;;;10.20;99.90;;;;;;5519708;26;20494;-66
2024/04/19 11:47:47;;;;;;;1098.27;999.90;;;9.60;99.90;;;;;;5519782;25;20458;-67
2024/04/19 11:50:16;;;;;;;1054.30;967.20;;;10.10;99.90;;;;;;5519894;26;20505;-67
2024/04/19 11:52:44;;;;;;;1073.43;987.07;;;9.60;99.90;;;;;;5499417;26;20456;-67
2024/04/19 11:55:12;;;;;;;1089.82;999.90;;;9.80;99.90;;;;;;5507126;26;20398;-67
2024/04/19 11:57:42;;;;;;;1044.87;963.40;;;9.80;99.90;;;;;;5524967;26;20327;-67
2024/04/19 12:00:12;;;;;;;1112.93;999.90;;;9.80;99.90;;;;;;5516331;26;20341;-67
2024/04/19 12:02:43;;;;;;;1075.03;990.67;;;9.60;99.90;;;;;;5513579;26;20449;-68
2024/04/19 12:05:11;;;;;;;1068.17;988.53;;;10.10;99.90;;;;;;5523437;25;20468;-68
2024/04/19 12:07:40;;;;;;;997.43;925.60;;;9.90;99.90;;;;;;5526508;25;20477;-69
2024/04/19 12:10:10;;;;;;;926.13;864.03;;;10.10;99.90;;;;;;5526514;25;20528;-68
2024/04/19 12:12:38;;;;;;;936.97;874.83;;;9.40;99.90;;;;;;5494989;25;20464;-69
2024/04/19 12:15:07;;;;;;;951.93;889.67;;;9.70;99.90;;;;;;5514374;25;20469;-67
2024/04/19 12:17:36;;;;;;;880.30;826.37;;;9.40;99.90;;;;;;5505701;26;20468;-68
2024/04/19 12:20:09;;;;;;;892.53;838.33;;;9.30;99.90;;;;;;5518308;25;20539;-67
2024/04/19 12:22:37;;;;;;;905.73;848.23;;;9.00;99.90;;;;;;5524323;25;20532;-66
2024/04/19 12:25:06;;;;;;;926.60;866.33;;;9.40;99.90;;;;;;5526496;25;20476;-67
2024/04/19 12:27:35;;;;;;;980.60;916.20;;;9.40;99.90;;;;;;5532055;25;20511;-69